sensor_id;sensor_type;location;lat;lon;timestamp;noise_LAeq;noise_LA_min;noise_LA_max;noise_LA01;noise_LA95
71016;Laerm;60940;52.046;5.340;2023-02-01T00:00:06;31.98;30.13;33.68;;
71016;Laerm;60940;52.046;5.340;2023-02-01T00:00:17;33.36;30.54;35.82;;
71016;Laerm;60940;52.046;5.340;2023-02-01T00:00:27;33.53;31.68;35.98;;
71016;Laerm;60940;52.046;5.340;2023-02-01T00:00:37;33.99;31.96;36.25;;
71016;Laerm;60940;52.046;5.340;2023-02-01T00:00:47;33.95;31.82;35.54;;
71016;Laerm;60940;52.046;5.340;2023-02-01T00:00:58;32.53;31.07;34.23;;
71016;Laerm;60940;52.046;5.340;2023-02-01T00:01:08;32.46;30.70;34.31;;
71016;Laerm;60940;52.046;5.340;2023-02-01T00:01:19;32.89;30.77;35.65;;
71016;Laerm;60940;52.046;5.340;2023-02-01T00:01:29;32.86;31.02;35.70;;
71016;Laerm;60940;52.046;5.340;2023-02-01T00:01:39;32.31;30.61;33.79;;
71016;Laerm;60940;52.046;5.340;2023-02-01T00:01:49;32.34;30.48;34.35;;
71016;Laerm;60940;52.046;5.340;2023-02-01T00:02:00;32.95;31.27;35.44;;
71016;Laerm;60940;52.046;5.340;2023-02-01T00:02:10;33.21;31.17;34.85;;
71016;Laerm;60940;52.046;5.340;2023-02-01T00:02:20;32.32;30.54;33.96;;
71016;Laerm;60940;52.046;5.340;2023-02-01T00:02:30;33.62;31.59;35.75;;
71016;Laerm;60940;52.046;5.340;2023-02-01T00:02:40;32.86;31.06;34.36;;
71016;Laerm;60940;52.046;5.340;2023-02-01T00:02:51;32.93;31.30;34.96;;
71016;Laerm;60940;52.046;5.340;2023-02-01T00:03:01;33.27;31.59;34.83;;
71016;Laerm;60940;52.046;5.340;2023-02-01T00:03:11;33.01;31.14;34.72;;
71016;Laerm;60940;52.046;5.340;2023-02-01T00:03:22;32.60;30.89;35.05;;
71016;Laerm;60940;52.046;5.340;2023-02-01T00:03:33;32.81;31.26;34.60;;
71016;Laerm;60940;52.046;5.340;2023-02-01T00:03:43;33.28;30.85;35.42;;
71016;Laerm;60940;52.046;5.340;2023-02-01T00:03:53;33.39;31.62;35.78;;
71016;Laerm;60940;52.046;5.340;2023-02-01T00:04:04;32.77;31.20;34.66;;
71016;Laerm;60940;52.046;5.340;2023-02-01T00:04:14;32.91;31.33;34.53;;
71016;Laerm;60940;52.046;5.340;2023-02-01T00:04:24;33.66;31.41;35.74;;
71016;Laerm;60940;52.046;5.340;2023-02-01T00:04:34;32.90;30.95;35.35;;
71016;Laerm;60940;52.046;5.340;2023-02-01T00:04:45;32.07;30.37;33.99;;
71016;Laerm;60940;52.046;5.340;2023-02-01T00:04:55;32.68;30.94;34.86;;
71016;Laerm;60940;52.046;5.340;2023-02-01T00:05:05;32.95;30.86;34.41;;
71016;Laerm;60940;52.046;5.340;2023-02-01T00:05:15;32.65;30.24;34.70;;
71016;Laerm;60940;52.046;5.340;2023-02-01T00:05:26;33.07;31.28;34.35;;
71016;Laerm;60940;52.046;5.340;2023-02-01T00:05:36;33.30;31.52;34.74;;
71016;Laerm;60940;52.046;5.340;2023-02-01T00:05:56;32.64;31.01;34.37;;
71016;Laerm;60940;52.046;5.340;2023-02-01T00:06:07;32.57;30.73;35.23;;
71016;Laerm;60940;52.046;5.340;2023-02-01T00:06:17;32.40;30.85;34.49;;
71016;Laerm;60940;52.046;5.340;2023-02-01T00:06:27;32.24;29.42;34.05;;
71016;Laerm;60940;52.046;5.340;2023-02-01T00:06:37;32.33;30.68;33.92;;
71016;Laerm;60940;52.046;5.340;2023-02-01T00:06:48;32.69;30.91;34.85;;
71016;Laerm;60940;52.046;5.340;2023-02-01T00:06:58;31.96;30.00;34.08;;
71016;Laerm;60940;52.046;5.340;2023-02-01T00:07:08;31.78;29.99;35.28;;
71016;Laerm;60940;52.046;5.340;2023-02-01T00:07:18;35.10;31.21;38.84;;
71016;Laerm;60940;52.046;5.340;2023-02-01T00:07:29;37.33;33.68;40.18;;
71016;Laerm;60940;52.046;5.340;2023-02-01T00:07:39;36.95;32.78;48.95;;
71016;Laerm;60940;52.046;5.340;2023-02-01T00:07:49;33.96;31.96;36.30;;
71016;Laerm;60940;52.046;5.340;2023-02-01T00:07:59;32.50;31.02;34.13;;
71016;Laerm;60940;52.046;5.340;2023-02-01T00:08:09;32.29;30.67;33.98;;
71016;Laerm;60940;52.046;5.340;2023-02-01T00:08:20;32.57;30.79;34.44;;
71016;Laerm;60940;52.046;5.340;2023-02-01T00:08:30;32.57;30.71;34.99;;
71016;Laerm;60940;52.046;5.340;2023-02-01T00:08:40;32.17;30.67;34.09;;
71016;Laerm;60940;52.046;5.340;2023-02-01T00:08:53;31.91;30.50;34.16;;
71016;Laerm;60940;52.046;5.340;2023-02-01T00:09:04;32.36;30.63;35.22;;
71016;Laerm;60940;52.046;5.340;2023-02-01T00:09:14;33.19;31.42;35.51;;
71016;Laerm;60940;52.046;5.340;2023-02-01T00:09:24;32.57;30.82;34.11;;
71016;Laerm;60940;52.046;5.340;2023-02-01T00:09:35;32.89;31.38;34.28;;
71016;Laerm;60940;52.046;5.340;2023-02-01T00:09:45;32.75;31.27;34.10;;
71016;Laerm;60940;52.046;5.340;2023-02-01T00:09:55;33.00;31.16;34.49;;
71016;Laerm;60940;52.046;5.340;2023-02-01T00:10:06;33.38;30.48;41.04;;
71016;Laerm;60940;52.046;5.340;2023-02-01T00:10:17;32.11;30.67;36.28;;
71016;Laerm;60940;52.046;5.340;2023-02-01T00:10:27;32.18;30.00;34.44;;
71016;Laerm;60940;52.046;5.340;2023-02-01T00:10:37;32.40;30.36;34.96;;
71016;Laerm;60940;52.046;5.340;2023-02-01T00:10:47;32.60;30.75;35.65;;
71016;Laerm;60940;52.046;5.340;2023-02-01T00:11:02;32.11;30.19;35.56;;
71016;Laerm;60940;52.046;5.340;2023-02-01T00:11:13;32.03;30.49;33.84;;
71016;Laerm;60940;52.046;5.340;2023-02-01T00:11:24;31.82;30.27;33.32;;
71016;Laerm;60940;52.046;5.340;2023-02-01T00:11:34;31.90;30.21;34.14;;
71016;Laerm;60940;52.046;5.340;2023-02-01T00:11:44;31.74;30.15;33.81;;
71016;Laerm;60940;52.046;5.340;2023-02-01T00:11:55;32.38;30.14;35.65;;
71016;Laerm;60940;52.046;5.340;2023-02-01T00:12:09;34.87;31.56;37.30;;
71016;Laerm;60940;52.046;5.340;2023-02-01T00:12:19;34.34;32.12;36.37;;
71016;Laerm;60940;52.046;5.340;2023-02-01T00:12:30;33.08;30.90;35.08;;
71016;Laerm;60940;52.046;5.340;2023-02-01T00:12:40;32.91;30.93;35.15;;
71016;Laerm;60940;52.046;5.340;2023-02-01T00:12:50;37.42;32.77;41.32;;
71016;Laerm;60940;52.046;5.340;2023-02-01T00:13:00;34.65;31.60;38.35;;
71016;Laerm;60940;52.046;5.340;2023-02-01T00:13:10;32.56;31.05;34.03;;
71016;Laerm;60940;52.046;5.340;2023-02-01T00:13:20;33.52;31.33;35.73;;
71016;Laerm;60940;52.046;5.340;2023-02-01T00:13:31;33.81;32.20;35.96;;
71016;Laerm;60940;52.046;5.340;2023-02-01T00:13:42;33.11;31.63;34.59;;
71016;Laerm;60940;52.046;5.340;2023-02-01T00:13:52;33.44;31.80;35.34;;
71016;Laerm;60940;52.046;5.340;2023-02-01T00:14:02;33.19;31.16;37.78;;
71016;Laerm;60940;52.046;5.340;2023-02-01T00:14:13;32.45;30.78;34.04;;
71016;Laerm;60940;52.046;5.340;2023-02-01T00:14:23;32.09;30.43;33.77;;
71016;Laerm;60940;52.046;5.340;2023-02-01T00:14:33;32.23;30.93;33.66;;
71016;Laerm;60940;52.046;5.340;2023-02-01T00:14:49;33.41;31.26;35.52;;
71016;Laerm;60940;52.046;5.340;2023-02-01T00:14:59;32.90;30.95;35.63;;
71016;Laerm;60940;52.046;5.340;2023-02-01T00:15:09;33.05;30.97;35.23;;
71016;Laerm;60940;52.046;5.340;2023-02-01T00:15:19;31.91;30.21;33.60;;
71016;Laerm;60940;52.046;5.340;2023-02-01T00:15:30;31.73;29.99;36.04;;
71016;Laerm;60940;52.046;5.340;2023-02-01T00:15:40;31.79;30.16;33.57;;
71016;Laerm;60940;52.046;5.340;2023-02-01T00:15:51;31.82;30.30;33.47;;
71016;Laerm;60940;52.046;5.340;2023-02-01T00:16:11;32.52;30.80;34.44;;
71016;Laerm;60940;52.046;5.340;2023-02-01T00:16:29;31.99;29.88;34.70;;
71016;Laerm;60940;52.046;5.340;2023-02-01T00:16:39;31.86;30.14;33.22;;
71016;Laerm;60940;52.046;5.340;2023-02-01T00:16:50;32.68;31.04;34.63;;
71016;Laerm;60940;52.046;5.340;2023-02-01T00:17:00;32.15;30.24;33.92;;
71016;Laerm;60940;52.046;5.340;2023-02-01T00:17:10;32.06;30.72;33.68;;
71016;Laerm;60940;52.046;5.340;2023-02-01T00:17:20;32.51;31.03;38.86;;
71016;Laerm;60940;52.046;5.340;2023-02-01T00:17:30;32.25;30.70;34.13;;
71016;Laerm;60940;52.046;5.340;2023-02-01T00:17:40;31.84;30.35;34.67;;
71016;Laerm;60940;52.046;5.340;2023-02-01T00:17:54;31.57;30.05;33.36;;
71016;Laerm;60940;52.046;5.340;2023-02-01T00:18:04;31.79;30.00;33.62;;
71016;Laerm;60940;52.046;5.340;2023-02-01T00:18:15;32.16;30.57;33.64;;
71016;Laerm;60940;52.046;5.340;2023-02-01T00:18:25;32.40;30.56;33.73;;
71016;Laerm;60940;52.046;5.340;2023-02-01T00:18:35;32.42;30.69;34.08;;
71016;Laerm;60940;52.046;5.340;2023-02-01T00:18:46;32.22;30.82;33.56;;
71016;Laerm;60940;52.046;5.340;2023-02-01T00:18:58;32.10;30.22;33.71;;
71016;Laerm;60940;52.046;5.340;2023-02-01T00:19:12;32.03;30.31;33.58;;
71016;Laerm;60940;52.046;5.340;2023-02-01T00:19:23;32.71;30.64;35.86;;
71016;Laerm;60940;52.046;5.340;2023-02-01T00:19:33;31.87;30.43;33.67;;
71016;Laerm;60940;52.046;5.340;2023-02-01T00:19:44;32.35;30.59;34.38;;
71016;Laerm;60940;52.046;5.340;2023-02-01T00:19:54;32.83;31.09;34.55;;
71016;Laerm;60940;52.046;5.340;2023-02-01T00:20:04;32.84;30.33;34.94;;
71016;Laerm;60940;52.046;5.340;2023-02-01T00:20:14;33.51;31.41;35.90;;
71016;Laerm;60940;52.046;5.340;2023-02-01T00:20:25;34.65;32.60;36.51;;
71016;Laerm;60940;52.046;5.340;2023-02-01T00:20:35;33.80;31.20;36.70;;
71016;Laerm;60940;52.046;5.340;2023-02-01T00:20:45;32.53;30.89;33.96;;
71016;Laerm;60940;52.046;5.340;2023-02-01T00:20:56;32.01;30.21;33.92;;
71016;Laerm;60940;52.046;5.340;2023-02-01T00:21:06;32.16;30.75;33.69;;
71016;Laerm;60940;52.046;5.340;2023-02-01T00:21:18;32.16;30.61;33.72;;
71016;Laerm;60940;52.046;5.340;2023-02-01T00:21:28;32.15;30.65;33.77;;
71016;Laerm;60940;52.046;5.340;2023-02-01T00:21:39;32.33;30.78;33.88;;
71016;Laerm;60940;52.046;5.340;2023-02-01T00:21:49;32.18;30.59;33.84;;
71016;Laerm;60940;52.046;5.340;2023-02-01T00:21:59;32.01;30.52;33.65;;
71016;Laerm;60940;52.046;5.340;2023-02-01T00:22:10;32.05;30.44;34.08;;
71016;Laerm;60940;52.046;5.340;2023-02-01T00:22:20;32.07;29.83;33.50;;
71016;Laerm;60940;52.046;5.340;2023-02-01T00:22:32;32.06;30.16;33.57;;
71016;Laerm;60940;52.046;5.340;2023-02-01T00:22:42;32.36;30.83;34.50;;
71016;Laerm;60940;52.046;5.340;2023-02-01T00:22:52;32.24;30.36;33.51;;
71016;Laerm;60940;52.046;5.340;2023-02-01T00:23:02;32.81;30.90;37.24;;
71016;Laerm;60940;52.046;5.340;2023-02-01T00:23:12;34.51;31.44;38.46;;
71016;Laerm;60940;52.046;5.340;2023-02-01T00:23:23;33.28;31.73;34.98;;
71016;Laerm;60940;52.046;5.340;2023-02-01T00:23:34;33.15;30.62;35.18;;
71016;Laerm;60940;52.046;5.340;2023-02-01T00:23:44;32.67;31.14;34.20;;
71016;Laerm;60940;52.046;5.340;2023-02-01T00:23:55;32.21;30.69;33.62;;
71016;Laerm;60940;52.046;5.340;2023-02-01T00:24:06;32.13;30.59;33.89;;
71016;Laerm;60940;52.046;5.340;2023-02-01T00:24:16;32.20;30.74;33.78;;
71016;Laerm;60940;52.046;5.340;2023-02-01T00:24:29;32.15;30.56;33.70;;
71016;Laerm;60940;52.046;5.340;2023-02-01T00:24:39;34.90;31.63;37.85;;
71016;Laerm;60940;52.046;5.340;2023-02-01T00:24:50;35.38;32.62;38.67;;
71016;Laerm;60940;52.046;5.340;2023-02-01T00:25:00;33.14;30.39;36.97;;
71016;Laerm;60940;52.046;5.340;2023-02-01T00:25:10;31.83;30.17;33.92;;
71016;Laerm;60940;52.046;5.340;2023-02-01T00:25:20;31.79;30.42;33.47;;
71016;Laerm;60940;52.046;5.340;2023-02-01T00:25:31;31.99;30.06;33.75;;
71016;Laerm;60940;52.046;5.340;2023-02-01T00:25:41;33.05;30.87;35.19;;
71016;Laerm;60940;52.046;5.340;2023-02-01T00:25:51;33.77;31.62;37.84;;
71016;Laerm;60940;52.046;5.340;2023-02-01T00:26:02;34.66;30.91;39.08;;
71016;Laerm;60940;52.046;5.340;2023-02-01T00:26:17;32.31;30.15;33.58;;
71016;Laerm;60940;52.046;5.340;2023-02-01T00:26:38;33.60;31.66;36.12;;
71016;Laerm;60940;52.046;5.340;2023-02-01T00:26:49;33.01;31.18;37.49;;
71016;Laerm;60940;52.046;5.340;2023-02-01T00:26:59;33.44;31.61;36.04;;
71016;Laerm;60940;52.046;5.340;2023-02-01T00:27:09;33.79;31.50;38.09;;
71016;Laerm;60940;52.046;5.340;2023-02-01T00:27:20;33.66;30.95;38.04;;
71016;Laerm;60940;52.046;5.340;2023-02-01T00:27:31;33.13;31.15;36.10;;
71016;Laerm;60940;52.046;5.340;2023-02-01T00:27:41;33.20;30.93;38.17;;
71016;Laerm;60940;52.046;5.340;2023-02-01T00:27:51;33.42;31.37;36.73;;
71016;Laerm;60940;52.046;5.340;2023-02-01T00:28:01;34.00;31.67;36.60;;
71016;Laerm;60940;52.046;5.340;2023-02-01T00:28:12;34.38;32.74;37.65;;
71016;Laerm;60940;52.046;5.340;2023-02-01T00:28:22;34.31;32.25;37.14;;
71016;Laerm;60940;52.046;5.340;2023-02-01T00:28:33;32.63;30.91;34.28;;
71016;Laerm;60940;52.046;5.340;2023-02-01T00:28:43;32.41;30.85;34.06;;
71016;Laerm;60940;52.046;5.340;2023-02-01T00:28:54;32.31;30.34;34.23;;
71016;Laerm;60940;52.046;5.340;2023-02-01T00:29:09;32.51;30.84;33.98;;
71016;Laerm;60940;52.046;5.340;2023-02-01T00:29:20;32.64;30.83;34.60;;
71016;Laerm;60940;52.046;5.340;2023-02-01T00:29:30;33.09;31.42;34.94;;
71016;Laerm;60940;52.046;5.340;2023-02-01T00:29:40;32.95;31.35;34.58;;
71016;Laerm;60940;52.046;5.340;2023-02-01T00:29:50;32.54;31.00;34.17;;
71016;Laerm;60940;52.046;5.340;2023-02-01T00:30:01;32.25;30.74;33.74;;
71016;Laerm;60940;52.046;5.340;2023-02-01T00:30:11;33.03;30.90;34.56;;
71016;Laerm;60940;52.046;5.340;2023-02-01T00:30:21;33.59;31.10;36.75;;
71016;Laerm;60940;52.046;5.340;2023-02-01T00:30:31;37.09;33.55;45.59;;
71016;Laerm;60940;52.046;5.340;2023-02-01T00:30:41;33.56;31.37;35.17;;
71016;Laerm;60940;52.046;5.340;2023-02-01T00:30:58;32.94;31.06;34.96;;
71016;Laerm;60940;52.046;5.340;2023-02-01T00:31:08;33.38;31.60;34.95;;
71016;Laerm;60940;52.046;5.340;2023-02-01T00:31:19;33.15;31.30;34.58;;
71016;Laerm;60940;52.046;5.340;2023-02-01T00:31:29;32.89;30.97;34.52;;
71016;Laerm;60940;52.046;5.340;2023-02-01T00:31:39;32.53;31.01;34.07;;
71016;Laerm;60940;52.046;5.340;2023-02-01T00:31:50;32.33;30.90;33.74;;
71016;Laerm;60940;52.046;5.340;2023-02-01T00:32:01;33.07;31.17;35.02;;
71016;Laerm;60940;52.046;5.340;2023-02-01T00:32:11;33.04;31.44;35.96;;
71016;Laerm;60940;52.046;5.340;2023-02-01T00:32:22;33.26;31.09;35.17;;
71016;Laerm;60940;52.046;5.340;2023-02-01T00:32:32;34.01;30.85;37.04;;
71016;Laerm;60940;52.046;5.340;2023-02-01T00:32:42;34.17;32.07;37.09;;
71016;Laerm;60940;52.046;5.340;2023-02-01T00:32:52;33.26;31.32;34.84;;
71016;Laerm;60940;52.046;5.340;2023-02-01T00:33:02;32.71;31.21;34.23;;
71016;Laerm;60940;52.046;5.340;2023-02-01T00:33:13;33.45;31.21;35.34;;
71016;Laerm;60940;52.046;5.340;2023-02-01T00:33:23;32.95;30.84;35.01;;
71016;Laerm;60940;52.046;5.340;2023-02-01T00:33:33;32.49;31.14;34.00;;
71016;Laerm;60940;52.046;5.340;2023-02-01T00:33:46;32.59;30.95;34.29;;
71016;Laerm;60940;52.046;5.340;2023-02-01T00:33:56;32.52;30.75;33.83;;
71016;Laerm;60940;52.046;5.340;2023-02-01T00:34:06;32.10;30.57;33.74;;
71016;Laerm;60940;52.046;5.340;2023-02-01T00:34:17;32.29;30.73;34.24;;
71016;Laerm;60940;52.046;5.340;2023-02-01T00:34:27;32.40;30.68;33.93;;
71016;Laerm;60940;52.046;5.340;2023-02-01T00:34:38;32.47;30.84;34.10;;
71016;Laerm;60940;52.046;5.340;2023-02-01T00:34:48;32.25;30.22;34.04;;
71016;Laerm;60940;52.046;5.340;2023-02-01T00:34:58;31.98;30.18;33.60;;
71016;Laerm;60940;52.046;5.340;2023-02-01T00:35:08;31.64;30.18;33.25;;
71016;Laerm;60940;52.046;5.340;2023-02-01T00:35:18;31.76;30.24;33.36;;
71016;Laerm;60940;52.046;5.340;2023-02-01T00:35:29;31.84;30.38;33.30;;
71016;Laerm;60940;52.046;5.340;2023-02-01T00:35:39;31.81;30.22;33.28;;
71016;Laerm;60940;52.046;5.340;2023-02-01T00:35:49;31.98;30.15;33.38;;
71016;Laerm;60940;52.046;5.340;2023-02-01T00:36:00;31.84;30.26;33.63;;
71016;Laerm;60940;52.046;5.340;2023-02-01T00:36:10;31.93;30.19;33.73;;
71016;Laerm;60940;52.046;5.340;2023-02-01T00:36:21;32.21;30.60;33.62;;
71016;Laerm;60940;52.046;5.340;2023-02-01T00:36:31;32.06;30.42;33.53;;
71016;Laerm;60940;52.046;5.340;2023-02-01T00:36:42;31.82;30.45;33.74;;
71016;Laerm;60940;52.046;5.340;2023-02-01T00:36:53;31.61;29.93;33.36;;
71016;Laerm;60940;52.046;5.340;2023-02-01T00:37:03;31.52;29.88;33.19;;
71016;Laerm;60940;52.046;5.340;2023-02-01T00:37:13;31.49;29.80;33.35;;
71016;Laerm;60940;52.046;5.340;2023-02-01T00:37:23;31.56;30.09;33.15;;
71016;Laerm;60940;52.046;5.340;2023-02-01T00:37:33;31.71;30.20;33.22;;
71016;Laerm;60940;52.046;5.340;2023-02-01T00:37:44;31.71;30.11;33.11;;
71016;Laerm;60940;52.046;5.340;2023-02-01T00:37:54;31.86;30.33;33.40;;
71016;Laerm;60940;52.046;5.340;2023-02-01T00:38:04;32.49;30.28;34.45;;
71016;Laerm;60940;52.046;5.340;2023-02-01T00:38:14;32.17;30.22;41.78;;
71016;Laerm;60940;52.046;5.340;2023-02-01T00:38:25;31.74;30.11;33.26;;
71016;Laerm;60940;52.046;5.340;2023-02-01T00:38:36;31.86;29.85;33.48;;
71016;Laerm;60940;52.046;5.340;2023-02-01T00:38:47;32.35;30.17;34.61;;
71016;Laerm;60940;52.046;5.340;2023-02-01T00:38:57;32.15;30.33;34.33;;
71016;Laerm;60940;52.046;5.340;2023-02-01T00:39:07;32.86;30.91;35.17;;
71016;Laerm;60940;52.046;5.340;2023-02-01T00:39:18;32.92;30.41;34.88;;
71016;Laerm;60940;52.046;5.340;2023-02-01T00:39:28;31.82;30.02;34.10;;
71016;Laerm;60940;52.046;5.340;2023-02-01T00:39:38;32.66;30.94;34.63;;
71016;Laerm;60940;52.046;5.340;2023-02-01T00:39:48;37.94;33.14;42.48;;
71016;Laerm;60940;52.046;5.340;2023-02-01T00:40:00;36.86;30.92;45.17;;
71016;Laerm;60940;52.046;5.340;2023-02-01T00:40:10;32.42;30.55;34.12;;
71016;Laerm;60940;52.046;5.340;2023-02-01T00:40:20;31.88;30.20;33.92;;
71016;Laerm;60940;52.046;5.340;2023-02-01T00:40:31;31.70;30.15;34.39;;
71016;Laerm;60940;52.046;5.340;2023-02-01T00:40:42;31.87;30.28;33.56;;
71016;Laerm;60940;52.046;5.340;2023-02-01T00:40:52;31.98;30.42;33.65;;
71016;Laerm;60940;52.046;5.340;2023-02-01T00:41:04;31.91;30.42;33.81;;
71016;Laerm;60940;52.046;5.340;2023-02-01T00:41:15;33.90;31.10;35.77;;
71016;Laerm;60940;52.046;5.340;2023-02-01T00:41:26;34.20;32.14;39.51;;
71016;Laerm;60940;52.046;5.340;2023-02-01T00:41:36;33.04;31.02;34.53;;
71016;Laerm;60940;52.046;5.340;2023-02-01T00:41:47;32.21;30.80;33.77;;
71016;Laerm;60940;52.046;5.340;2023-02-01T00:41:57;31.92;30.32;34.50;;
71016;Laerm;60940;52.046;5.340;2023-02-01T00:42:07;33.32;30.95;36.16;;
71016;Laerm;60940;52.046;5.340;2023-02-01T00:42:17;32.20;30.74;33.81;;
71016;Laerm;60940;52.046;5.340;2023-02-01T00:42:27;32.32;30.70;34.07;;
71016;Laerm;60940;52.046;5.340;2023-02-01T00:42:37;32.20;30.35;33.73;;
71016;Laerm;60940;52.046;5.340;2023-02-01T00:42:48;31.94;30.41;33.45;;
71016;Laerm;60940;52.046;5.340;2023-02-01T00:42:58;31.98;30.49;33.83;;
71016;Laerm;60940;52.046;5.340;2023-02-01T00:43:08;32.12;30.30;33.56;;
71016;Laerm;60940;52.046;5.340;2023-02-01T00:43:18;32.36;30.67;34.24;;
71016;Laerm;60940;52.046;5.340;2023-02-01T00:43:30;32.27;30.86;34.40;;
71016;Laerm;60940;52.046;5.340;2023-02-01T00:43:40;32.16;30.98;33.38;;
71016;Laerm;60940;52.046;5.340;2023-02-01T00:43:51;34.91;31.29;36.80;;
71016;Laerm;60940;52.046;5.340;2023-02-01T00:44:01;34.42;32.32;36.06;;
71016;Laerm;60940;52.046;5.340;2023-02-01T00:44:12;35.82;32.94;41.33;;
71016;Laerm;60940;52.046;5.340;2023-02-01T00:44:22;37.43;34.28;40.30;;
71016;Laerm;60940;52.046;5.340;2023-02-01T00:44:32;36.22;33.54;38.81;;
71016;Laerm;60940;52.046;5.340;2023-02-01T00:44:43;33.55;31.44;35.42;;
71016;Laerm;60940;52.046;5.340;2023-02-01T00:44:53;33.47;31.52;35.25;;
71016;Laerm;60940;52.046;5.340;2023-02-01T00:45:03;33.19;31.15;35.26;;
71016;Laerm;60940;52.046;5.340;2023-02-01T00:45:13;33.77;31.22;38.30;;
71016;Laerm;60940;52.046;5.340;2023-02-01T00:45:24;32.80;30.83;40.68;;
71016;Laerm;60940;52.046;5.340;2023-02-01T00:45:34;32.18;30.56;33.83;;
71016;Laerm;60940;52.046;5.340;2023-02-01T00:45:45;35.24;31.97;38.78;;
71016;Laerm;60940;52.046;5.340;2023-02-01T00:45:55;40.57;36.74;43.80;;
71016;Laerm;60940;52.046;5.340;2023-02-01T00:46:06;35.59;32.73;39.66;;
71016;Laerm;60940;52.046;5.340;2023-02-01T00:46:16;32.52;30.99;35.83;;
71016;Laerm;60940;52.046;5.340;2023-02-01T00:46:27;31.78;30.19;33.26;;
71016;Laerm;60940;52.046;5.340;2023-02-01T00:46:37;32.17;30.41;33.94;;
71016;Laerm;60940;52.046;5.340;2023-02-01T00:46:48;32.06;30.28;33.52;;
71016;Laerm;60940;52.046;5.340;2023-02-01T00:46:58;31.98;30.43;33.29;;
71016;Laerm;60940;52.046;5.340;2023-02-01T00:47:08;32.04;30.18;33.50;;
71016;Laerm;60940;52.046;5.340;2023-02-01T00:47:18;32.09;30.30;33.50;;
71016;Laerm;60940;52.046;5.340;2023-02-01T00:47:29;32.69;31.06;34.83;;
71016;Laerm;60940;52.046;5.340;2023-02-01T00:47:40;32.56;30.76;34.06;;
71016;Laerm;60940;52.046;5.340;2023-02-01T00:47:50;33.09;31.31;36.75;;
71016;Laerm;60940;52.046;5.340;2023-02-01T00:48:00;32.77;31.23;34.29;;
71016;Laerm;60940;52.046;5.340;2023-02-01T00:48:11;32.76;30.88;34.45;;
71016;Laerm;60940;52.046;5.340;2023-02-01T00:48:21;36.55;31.91;38.97;;
71016;Laerm;60940;52.046;5.340;2023-02-01T00:48:31;35.13;32.87;36.67;;
71016;Laerm;60940;52.046;5.340;2023-02-01T00:48:41;34.74;33.33;36.48;;
71016;Laerm;60940;52.046;5.340;2023-02-01T00:48:52;33.11;31.50;34.64;;
71016;Laerm;60940;52.046;5.340;2023-02-01T00:49:02;33.08;31.13;34.99;;
71016;Laerm;60940;52.046;5.340;2023-02-01T00:49:12;33.24;31.42;35.26;;
71016;Laerm;60940;52.046;5.340;2023-02-01T00:49:22;35.04;31.60;40.96;;
71016;Laerm;60940;52.046;5.340;2023-02-01T00:49:32;42.85;39.03;45.58;;
71016;Laerm;60940;52.046;5.340;2023-02-01T00:49:43;40.65;33.48;44.56;;
71016;Laerm;60940;52.046;5.340;2023-02-01T00:49:53;33.88;31.84;35.49;;
71016;Laerm;60940;52.046;5.340;2023-02-01T00:50:03;33.50;31.39;39.12;;
71016;Laerm;60940;52.046;5.340;2023-02-01T00:50:15;33.73;31.44;37.78;;
71016;Laerm;60940;52.046;5.340;2023-02-01T00:50:25;34.15;32.37;36.21;;
71016;Laerm;60940;52.046;5.340;2023-02-01T00:50:35;33.60;31.74;35.77;;
71016;Laerm;60940;52.046;5.340;2023-02-01T00:50:45;32.90;30.96;34.97;;
71016;Laerm;60940;52.046;5.340;2023-02-01T00:50:59;33.57;32.00;35.14;;
71016;Laerm;60940;52.046;5.340;2023-02-01T00:51:14;34.59;32.15;36.99;;
71016;Laerm;60940;52.046;5.340;2023-02-01T00:51:26;35.80;32.89;38.41;;
71016;Laerm;60940;52.046;5.340;2023-02-01T00:51:36;35.16;32.72;40.00;;
71016;Laerm;60940;52.046;5.340;2023-02-01T00:51:46;32.75;31.15;34.80;;
71016;Laerm;60940;52.046;5.340;2023-02-01T00:51:57;32.61;31.12;34.18;;
71016;Laerm;60940;52.046;5.340;2023-02-01T00:52:07;33.51;32.04;35.49;;
71016;Laerm;60940;52.046;5.340;2023-02-01T00:52:17;33.59;31.67;35.98;;
71016;Laerm;60940;52.046;5.340;2023-02-01T00:52:27;34.12;32.04;37.23;;
71016;Laerm;60940;52.046;5.340;2023-02-01T00:52:38;38.48;35.60;41.34;;
71016;Laerm;60940;52.046;5.340;2023-02-01T00:52:48;37.58;34.65;46.81;;
71016;Laerm;60940;52.046;5.340;2023-02-01T00:52:58;35.42;33.78;40.06;;
71016;Laerm;60940;52.046;5.340;2023-02-01T00:53:10;36.64;32.72;40.12;;
71016;Laerm;60940;52.046;5.340;2023-02-01T00:53:20;37.38;35.17;40.56;;
71016;Laerm;60940;52.046;5.340;2023-02-01T00:53:31;36.64;33.88;42.44;;
71016;Laerm;60940;52.046;5.340;2023-02-01T00:53:41;35.78;33.46;40.12;;
71016;Laerm;60940;52.046;5.340;2023-02-01T00:53:51;37.72;33.12;41.43;;
71016;Laerm;60940;52.046;5.340;2023-02-01T00:54:02;39.31;33.24;43.64;;
71016;Laerm;60940;52.046;5.340;2023-02-01T00:54:13;37.34;33.96;42.04;;
71016;Laerm;60940;52.046;5.340;2023-02-01T00:54:23;34.98;32.93;37.93;;
71016;Laerm;60940;52.046;5.340;2023-02-01T00:54:33;33.69;31.52;35.26;;
71016;Laerm;60940;52.046;5.340;2023-02-01T00:54:44;34.74;31.82;38.09;;
71016;Laerm;60940;52.046;5.340;2023-02-01T00:54:54;36.28;34.01;39.13;;
71016;Laerm;60940;52.046;5.340;2023-02-01T00:55:05;36.48;32.53;42.10;;
71016;Laerm;60940;52.046;5.340;2023-02-01T00:55:15;32.65;30.71;34.61;;
71016;Laerm;60940;52.046;5.340;2023-02-01T00:55:25;33.26;30.62;36.08;;
71016;Laerm;60940;52.046;5.340;2023-02-01T00:55:35;34.43;32.13;38.56;;
71016;Laerm;60940;52.046;5.340;2023-02-01T00:55:46;32.99;31.59;34.69;;
71016;Laerm;60940;52.046;5.340;2023-02-01T00:55:57;33.66;31.36;37.26;;
71016;Laerm;60940;52.046;5.340;2023-02-01T00:56:08;35.95;32.58;39.10;;
71016;Laerm;60940;52.046;5.340;2023-02-01T00:56:18;32.36;30.81;33.68;;
71016;Laerm;60940;52.046;5.340;2023-02-01T00:56:29;32.74;31.09;34.01;;
71016;Laerm;60940;52.046;5.340;2023-02-01T00:56:39;32.67;31.10;34.12;;
71016;Laerm;60940;52.046;5.340;2023-02-01T00:56:49;32.41;30.48;33.96;;
71016;Laerm;60940;52.046;5.340;2023-02-01T00:57:00;32.76;30.79;34.82;;
71016;Laerm;60940;52.046;5.340;2023-02-01T00:57:10;32.35;30.59;34.85;;
71016;Laerm;60940;52.046;5.340;2023-02-01T00:57:20;33.01;31.04;34.55;;
71016;Laerm;60940;52.046;5.340;2023-02-01T00:57:30;33.40;31.52;35.72;;
71016;Laerm;60940;52.046;5.340;2023-02-01T00:57:40;33.97;31.85;36.69;;
71016;Laerm;60940;52.046;5.340;2023-02-01T00:57:51;33.16;31.25;36.17;;
71016;Laerm;60940;52.046;5.340;2023-02-01T00:58:01;33.20;31.58;34.74;;
71016;Laerm;60940;52.046;5.340;2023-02-01T00:58:11;32.98;31.44;34.84;;
71016;Laerm;60940;52.046;5.340;2023-02-01T00:58:21;33.20;31.58;34.88;;
71016;Laerm;60940;52.046;5.340;2023-02-01T00:58:33;36.47;32.52;40.60;;
71016;Laerm;60940;52.046;5.340;2023-02-01T00:58:44;38.49;34.03;44.13;;
71016;Laerm;60940;52.046;5.340;2023-02-01T00:58:54;39.12;35.57;42.54;;
71016;Laerm;60940;52.046;5.340;2023-02-01T00:59:04;36.25;34.22;38.31;;
71016;Laerm;60940;52.046;5.340;2023-02-01T00:59:15;34.12;32.47;37.15;;
71016;Laerm;60940;52.046;5.340;2023-02-01T00:59:25;32.96;31.24;35.40;;
71016;Laerm;60940;52.046;5.340;2023-02-01T00:59:35;32.78;30.81;34.99;;